Springfield, Ohio
Current Conditions -  °F | °C
As of 8:56 AM on Saturday 25 Oct 2014 (Local Time) from KSGH Reporting Station
Haze Haze  
Wind Chill: 51°   Ceiling: 4400
Heat Index: 51°   Visibility: 5mi
Dew Point: 48°   Wind: 9mph
Humidity: 89%   Direction: 210°SSW
Pressure: 29.98"   Gusts: NA
Location:  39.93°N, 83.81°W
Report Text: KSGH 251256Z AUTO 21008KT 5SM BR OVC044 11/09 A2998 RMK AO2 T01050088 OVC V BKN SLP153
Loading
Personal Weather Stations






























Interactive Weather Map New forecast layout! Learn more

10-Day Weather Forecast

Advertisements
Track Severe Weather on mobile